Time;durP1;ratioP1;P1;durP2;ratioP2;P2;SDS_P1;SDS_P2;PMS_P1;PMS_P2;Temp;Humidity;BMP_temperature;BMP_pressure;BME280_temperature;BME280_humidity;BME280_pressure;Samples;Min_cycle;Max_cycle;Signal;HPM_P1;HPM_P2
2022/03/26 00:00:09;;;;;;;53.22;23.00;;;8.40;99.90;;;;;;5014559;28;20026;-61
2022/03/26 00:02:35;;;;;;;43.75;21.33;;;8.30;99.90;;;;;;5014023;28;20033;-63
2022/03/26 00:05:01;;;;;;;45.92;21.40;;;8.30;99.90;;;;;;5014392;28;20026;-62
2022/03/26 00:07:27;;;;;;;46.05;22.45;;;8.30;99.90;;;;;;5014112;28;20117;-62
2022/03/26 00:09:52;;;;;;;46.25;22.17;;;8.30;99.90;;;;;;5019107;28;20029;-62
2022/03/26 00:12:18;;;;;;;48.92;24.65;;;8.30;99.90;;;;;;5014146;28;20088;-61
2022/03/26 00:14:44;;;;;;;47.95;23.58;;;8.20;99.90;;;;;;5013717;28;20025;-62
2022/03/26 00:17:09;;;;;;;50.58;25.52;;;8.20;99.90;;;;;;5013954;28;20489;-62
2022/03/26 00:19:35;;;;;;;56.92;34.30;;;8.20;99.90;;;;;;5013798;28;20030;-63
2022/03/26 00:22:00;;;;;;;63.40;33.20;;;8.20;99.90;;;;;;5014040;28;20026;-63
2022/03/26 00:24:26;;;;;;;53.85;25.88;;;8.20;99.90;;;;;;5013748;28;20570;-63
2022/03/26 00:26:52;;;;;;;51.17;27.02;;;8.20;99.90;;;;;;5014179;28;20026;-62
2022/03/26 00:29:18;;;;;;;54.08;26.67;;;8.10;99.90;;;;;;5013633;28;20031;-62
2022/03/26 00:31:44;;;;;;;50.92;24.00;;;8.10;99.90;;;;;;5013447;28;20034;-62
2022/03/26 00:34:10;;;;;;;52.92;25.15;;;8.10;99.90;;;;;;5014220;28;20454;-62
2022/03/26 00:36:36;;;;;;;53.53;24.83;;;8.10;99.90;;;;;;5013482;28;20374;-62
2022/03/26 00:39:02;;;;;;;50.08;24.67;;;8.10;99.90;;;;;;5012733;28;20489;-62
2022/03/26 00:41:31;;;;;;;50.80;25.92;;;8.10;99.90;;;;;;5012592;28;20026;-62
2022/03/26 00:43:56;;;;;;;49.95;25.05;;;8.10;99.90;;;;;;5013710;28;20060;-62
2022/03/26 00:46:22;;;;;;;50.00;23.55;;;8.10;99.90;;;;;;5013683;28;20022;-62
2022/03/26 00:48:48;;;;;;;51.75;23.42;;;8.10;99.90;;;;;;5013584;28;20030;-63
2022/03/26 00:51:15;;;;;;;47.97;24.05;;;8.00;99.90;;;;;;5013785;28;20029;-63
2022/03/26 00:53:45;;;;;;;56.15;28.92;;;8.00;99.90;;;;;;5014013;28;20084;-62
2022/03/26 00:56:12;;;;;;;52.20;24.45;;;8.00;99.90;;;;;;5013724;28;20030;-63
2022/03/26 00:58:38;;;;;;;56.60;26.25;;;8.00;99.90;;;;;;5013325;28;20099;-61
2022/03/26 01:01:03;;;;;;;53.33;25.23;;;8.00;99.90;;;;;;5013775;28;20045;-62
2022/03/26 01:03:29;;;;;;;54.38;25.05;;;8.00;99.90;;;;;;5013641;28;20026;-62
2022/03/26 01:05:55;;;;;;;52.88;24.65;;;8.00;99.90;;;;;;5013742;28;20025;-62
2022/03/26 01:08:20;;;;;;;53.90;26.35;;;7.90;99.90;;;;;;5013453;28;20026;-62
2022/03/26 01:10:46;;;;;;;57.67;27.38;;;7.90;99.90;;;;;;5017894;28;20085;-62
2022/03/26 01:13:12;;;;;;;52.97;25.58;;;7.90;99.90;;;;;;5017549;28;20032;-62
2022/03/26 01:15:38;;;;;;;51.97;24.88;;;7.90;99.90;;;;;;5017456;28;20018;-63
2022/03/26 01:18:04;;;;;;;69.70;36.17;;;7.90;99.90;;;;;;5028612;28;20037;-63
2022/03/26 01:20:30;;;;;;;55.45;29.27;;;7.90;99.90;;;;;;5017252;28;20473;-62
2022/03/26 01:22:56;;;;;;;54.47;27.98;;;7.90;99.90;;;;;;5017594;28;20022;-63
2022/03/26 01:25:22;;;;;;;56.05;27.65;;;7.90;99.90;;;;;;5017342;28;20052;-62
2022/03/26 01:27:47;;;;;;;54.58;28.30;;;7.90;99.90;;;;;;5016900;28;20383;-62
2022/03/26 01:30:15;;;;;;;53.20;28.13;;;7.90;99.90;;;;;;5017179;28;20042;-62
2022/03/26 01:32:43;;;;;;;52.38;26.30;;;7.90;99.90;;;;;;5016972;28;20030;-62
2022/03/26 01:35:09;;;;;;;58.28;27.55;;;7.80;99.90;;;;;;5017167;28;20378;-63
2022/03/26 01:37:35;;;;;;;57.55;25.67;;;7.90;99.90;;;;;;5016887;28;20550;-63
2022/03/26 01:40:00;;;;;;;57.33;27.35;;;7.90;99.90;;;;;;5017108;28;20108;-62
2022/03/26 01:42:26;;;;;;;59.03;28.40;;;7.80;99.90;;;;;;5016795;28;20356;-63
2022/03/26 01:44:51;;;;;;;54.97;29.80;;;7.80;99.90;;;;;;5016645;28;20057;-62
2022/03/26 01:47:18;;;;;;;58.38;28.23;;;7.80;99.90;;;;;;5017054;28;20034;-62
2022/03/26 01:49:44;;;;;;;59.38;28.77;;;7.80;99.90;;;;;;4997338;28;20027;-63
2022/03/26 01:52:10;;;;;;;56.40;25.77;;;7.70;99.90;;;;;;5002052;28;20037;-62
2022/03/26 01:54:38;;;;;;;60.35;30.02;;;7.70;99.90;;;;;;5015749;28;20066;-63
2022/03/26 01:57:04;;;;;;;66.45;31.35;;;7.70;99.90;;;;;;5015289;28;20099;-63
2022/03/26 01:59:30;;;;;;;57.13;26.92;;;7.70;99.90;;;;;;5015698;28;20061;-63
2022/03/26 02:01:56;;;;;;;56.85;27.75;;;7.60;99.90;;;;;;5016403;28;20485;-62
2022/03/26 02:04:21;;;;;;;69.35;31.17;;;7.70;99.90;;;;;;5015043;28;20018;-62
2022/03/26 02:06:48;;;;;;;70.82;29.75;;;7.60;99.90;;;;;;5015762;28;20164;-64
2022/03/26 02:09:15;;;;;;;61.72;29.40;;;7.60;99.90;;;;;;5016117;28;20022;-62
2022/03/26 02:11:44;;;;;;;61.15;28.38;;;7.50;99.90;;;;;;5015785;28;20423;-62
2022/03/26 02:14:11;;;;;;;63.38;29.42;;;7.50;99.90;;;;;;5016370;28;20041;-64
2022/03/26 02:16:38;;;;;;;59.97;27.98;;;7.50;99.90;;;;;;5016356;28;20030;-62
2022/03/26 02:19:06;;;;;;;62.63;28.70;;;7.40;99.90;;;;;;5014849;28;20026;-62
2022/03/26 02:21:34;;;;;;;64.00;29.40;;;7.40;99.90;;;;;;5015455;28;20018;-62
2022/03/26 02:24:00;;;;;;;63.78;29.02;;;7.40;99.90;;;;;;5016084;28;20117;-62
2022/03/26 02:26:26;;;;;;;64.97;27.98;;;7.40;99.90;;;;;;5015574;28;20053;-63
2022/03/26 02:28:56;;;;;;;59.13;29.77;;;7.40;99.90;;;;;;5015888;28;20033;-62
2022/03/26 02:31:23;;;;;;;63.35;28.13;;;7.30;99.90;;;;;;5014759;28;20116;-62
2022/03/26 02:33:49;;;;;;;65.10;30.05;;;7.40;99.90;;;;;;5015782;28;20032;-62
2022/03/26 02:36:15;;;;;;;66.15;29.10;;;7.30;99.90;;;;;;5015772;28;20029;-63
2022/03/26 02:38:41;;;;;;;67.57;29.98;;;7.30;99.90;;;;;;5015619;28;20081;-63
2022/03/26 02:41:07;;;;;;;69.93;32.67;;;7.30;99.90;;;;;;5015433;28;20548;-62
2022/03/26 02:43:33;;;;;;;67.85;31.13;;;7.30;99.90;;;;;;5015673;28;20032;-62
2022/03/26 02:45:59;;;;;;;74.43;32.35;;;7.20;99.90;;;;;;5015953;28;20116;-62
2022/03/26 02:48:25;;;;;;;70.30;31.63;;;7.20;99.90;;;;;;5015656;28;20105;-63
2022/03/26 02:50:50;;;;;;;65.22;29.73;;;7.20;99.90;;;;;;5016101;28;20049;-63
2022/03/26 02:53:16;;;;;;;68.72;30.98;;;7.20;99.90;;;;;;5013973;28;20422;-62
2022/03/26 02:55:42;;;;;;;65.43;28.95;;;7.20;99.90;;;;;;5015148;28;20030;-62
2022/03/26 02:58:09;;;;;;;71.00;31.67;;;7.20;99.90;;;;;;5014996;28;20374;-62
2022/03/26 03:00:35;;;;;;;74.22;31.70;;;7.20;99.90;;;;;;5015516;28;20025;-63
2022/03/26 03:03:01;;;;;;;72.05;32.03;;;7.20;99.90;;;;;;5015086;28;20038;-62
2022/03/26 03:05:27;;;;;;;77.15;33.15;;;7.20;99.90;;;;;;5015325;28;20026;-62
2022/03/26 03:07:53;;;;;;;79.32;32.83;;;7.20;99.90;;;;;;5014473;28;20121;-62
2022/03/26 03:10:20;;;;;;;73.32;31.63;;;7.20;99.90;;;;;;5014042;28;20055;-63
2022/03/26 03:12:46;;;;;;;83.18;35.03;;;7.10;99.90;;;;;;5015634;28;20026;-62
2022/03/26 03:15:12;;;;;;;76.68;33.95;;;7.20;99.90;;;;;;5014694;28;20022;-62
2022/03/26 03:17:39;;;;;;;78.75;35.08;;;7.10;99.90;;;;;;5014670;28;20394;-62
2022/03/26 03:20:06;;;;;;;85.72;36.63;;;7.10;99.90;;;;;;5015058;28;20108;-62
2022/03/26 03:22:32;;;;;;;80.90;35.22;;;7.10;99.90;;;;;;5014777;28;20057;-62
2022/03/26 03:24:58;;;;;;;84.88;35.58;;;7.10;99.90;;;;;;5013096;28;20073;-62
2022/03/26 03:27:23;;;;;;;80.82;35.33;;;7.10;99.90;;;;;;5015099;28;20026;-62
2022/03/26 03:29:49;;;;;;;84.28;35.72;;;7.10;99.90;;;;;;5014604;28;20383;-63
2022/03/26 03:32:15;;;;;;;83.72;35.88;;;7.10;99.90;;;;;;5014211;28;20040;-62
2022/03/26 03:34:41;;;;;;;83.10;35.30;;;7.00;99.90;;;;;;5014812;28;20151;-63
2022/03/26 03:37:06;;;;;;;97.10;38.55;;;7.00;99.90;;;;;;5014267;28;20061;-63
2022/03/26 03:39:33;;;;;;;92.88;38.45;;;7.00;99.90;;;;;;5014427;28;20378;-62
2022/03/26 03:41:58;;;;;;;85.03;37.13;;;7.00;99.90;;;;;;5014146;28;20029;-63
2022/03/26 03:44:25;;;;;;;97.32;40.70;;;7.00;99.90;;;;;;5014463;28;20036;-63
2022/03/26 03:46:51;;;;;;;97.60;39.03;;;7.00;99.90;;;;;;5014385;28;20026;-63
2022/03/26 03:49:17;;;;;;;99.63;39.63;;;7.00;99.90;;;;;;5014052;28;20097;-63
2022/03/26 03:51:42;;;;;;;86.82;36.72;;;6.90;99.90;;;;;;5013938;28;20036;-63
2022/03/26 03:54:08;;;;;;;91.75;38.50;;;7.00;99.90;;;;;;5014495;28;20524;-63
2022/03/26 03:56:35;;;;;;;99.40;38.50;;;7.00;99.90;;;;;;5014050;28;20386;-63
2022/03/26 03:59:00;;;;;;;97.47;39.88;;;7.00;99.90;;;;;;5014191;28;20048;-63
2022/03/26 04:01:26;;;;;;;90.80;40.08;;;6.90;99.90;;;;;;5013775;28;20458;-62
2022/03/26 04:03:52;;;;;;;98.13;40.60;;;7.00;99.90;;;;;;5014182;28;20034;-63
2022/03/26 04:06:17;;;;;;;95.85;40.15;;;7.00;99.90;;;;;;5013839;28;20100;-63
2022/03/26 04:08:43;;;;;;;104.20;41.80;;;6.90;99.90;;;;;;5013680;28;20040;-63
2022/03/26 04:11:09;;;;;;;105.88;41.72;;;6.90;99.90;;;;;;5014352;28;20021;-63
2022/03/26 04:13:35;;;;;;;102.82;43.22;;;6.90;99.90;;;;;;5014103;28;20041;-62
2022/03/26 04:16:00;;;;;;;107.45;41.10;;;6.90;99.90;;;;;;5013901;28;20022;-62
2022/03/26 04:18:26;;;;;;;105.03;42.15;;;6.90;99.90;;;;;;5013703;28;20065;-62
2022/03/26 04:20:53;;;;;;;115.20;43.92;;;6.90;99.90;;;;;;5013315;28;20072;-62
2022/03/26 04:23:19;;;;;;;118.53;45.47;;;6.90;99.90;;;;;;5014205;28;20021;-63
2022/03/26 04:25:45;;;;;;;109.43;43.92;;;6.90;99.90;;;;;;5012587;28;20056;-63
2022/03/26 04:28:11;;;;;;;108.35;42.42;;;6.80;99.90;;;;;;5013819;28;20026;-63
2022/03/26 04:30:37;;;;;;;114.82;45.33;;;6.80;99.90;;;;;;5012202;28;20037;-63
2022/03/26 04:33:02;;;;;;;106.68;41.90;;;6.80;99.90;;;;;;5013857;28;20034;-64
2022/03/26 04:35:28;;;;;;;103.07;42.33;;;6.80;99.90;;;;;;5013136;28;20030;-63
2022/03/26 04:37:56;;;;;;;94.13;40.88;;;6.70;99.90;;;;;;5013671;28;20474;-63
2022/03/26 04:40:22;;;;;;;109.97;43.05;;;6.70;99.90;;;;;;5013543;28;20026;-63
2022/03/26 04:42:48;;;;;;;111.90;43.45;;;6.60;99.90;;;;;;5013294;28;20105;-63
2022/03/26 04:45:13;;;;;;;106.55;42.25;;;6.60;99.90;;;;;;5012744;28;20534;-62
2022/03/26 04:47:40;;;;;;;112.97;44.42;;;6.50;99.90;;;;;;5013194;28;20029;-62
2022/03/26 04:50:06;;;;;;;106.88;41.95;;;6.50;99.90;;;;;;5012894;28;20530;-62
2022/03/26 04:52:32;;;;;;;107.20;42.45;;;6.40;99.90;;;;;;5013591;28;20033;-62
2022/03/26 04:54:59;;;;;;;112.97;43.20;;;6.40;99.90;;;;;;5013258;28;20022;-63
2022/03/26 04:57:24;;;;;;;108.03;40.78;;;6.40;99.90;;;;;;5013083;28;20503;-62
2022/03/26 04:59:50;;;;;;;112.90;43.10;;;6.30;99.90;;;;;;5013411;28;20045;-63
2022/03/26 05:02:15;;;;;;;110.72;43.35;;;6.30;99.90;;;;;;5013546;28;20041;-63
2022/03/26 05:04:41;;;;;;;119.00;43.88;;;6.20;99.90;;;;;;5013197;28;20382;-63
2022/03/26 05:09:51;;;;;;;113.38;43.25;;;6.10;99.90;;;;;;5013147;28;20071;-63
2022/03/26 05:12:17;;;;;;;118.00;42.30;;;6.10;99.90;;;;;;5013370;28;20034;-63
2022/03/26 05:14:44;;;;;;;125.72;45.63;;;6.10;99.90;;;;;;5012898;28;20028;-63
2022/03/26 05:17:10;;;;;;;130.02;49.35;;;6.00;99.90;;;;;;5012295;28;20076;-62
2022/03/26 05:19:35;;;;;;;130.25;47.88;;;6.00;99.90;;;;;;5012852;28;20022;-62
2022/03/26 05:22:01;;;;;;;135.98;49.03;;;6.00;99.90;;;;;;5013200;28;20471;-63
2022/03/26 05:24:26;;;;;;;128.75;46.90;;;6.00;99.90;;;;;;5012849;28;20044;-63
2022/03/26 05:26:52;;;;;;;135.10;49.35;;;6.00;99.90;;;;;;5013189;28;20493;-63
2022/03/26 05:29:18;;;;;;;128.77;46.97;;;5.90;99.90;;;;;;5012705;28;20026;-62
2022/03/26 05:31:43;;;;;;;132.07;48.13;;;6.00;99.90;;;;;;5012968;28;20463;-63
2022/03/26 05:34:09;;;;;;;132.30;47.58;;;5.90;99.90;;;;;;5012718;28;20460;-63
2022/03/26 05:36:34;;;;;;;141.40;48.60;;;5.90;99.90;;;;;;5013246;28;20041;-62
2022/03/26 05:39:00;;;;;;;138.55;49.75;;;6.00;99.90;;;;;;5012652;28;20389;-63
2022/03/26 05:41:26;;;;;;;141.50;48.10;;;6.00;99.90;;;;;;5013431;28;20386;-63
2022/03/26 05:43:52;;;;;;;132.10;48.97;;;6.00;99.90;;;;;;5012516;28;20108;-63
2022/03/26 05:46:17;;;;;;;147.90;50.17;;;6.00;99.90;;;;;;5012169;28;20158;-63
2022/03/26 05:48:43;;;;;;;145.75;50.58;;;6.00;99.90;;;;;;5028391;28;20021;-63
2022/03/26 05:51:09;;;;;;;155.85;51.28;;;6.00;99.90;;;;;;5012795;28;20472;-63
2022/03/26 05:53:35;;;;;;;143.88;51.38;;;6.10;99.90;;;;;;5012723;28;20049;-63
2022/03/26 05:56:01;;;;;;;138.52;51.40;;;6.10;99.90;;;;;;5015745;28;20434;-63
2022/03/26 05:58:26;;;;;;;147.75;52.58;;;6.10;99.90;;;;;;5016799;28;20080;-63
2022/03/26 06:00:52;;;;;;;154.85;51.65;;;6.20;99.90;;;;;;5016306;28;20480;-63
2022/03/26 06:03:18;;;;;;;165.43;54.05;;;6.20;99.90;;;;;;5016459;28;20026;-63
2022/03/26 06:05:46;;;;;;;154.98;56.00;;;6.20;99.90;;;;;;5016381;28;20025;-63
2022/03/26 06:08:11;;;;;;;146.55;52.28;;;6.30;99.90;;;;;;5016598;28;20030;-62
2022/03/26 06:10:37;;;;;;;149.23;54.58;;;6.30;99.90;;;;;;5015945;28;20022;-62
2022/03/26 06:13:03;;;;;;;158.60;55.63;;;6.40;99.90;;;;;;5016326;28;20484;-63
2022/03/26 06:15:28;;;;;;;131.88;48.63;;;6.50;99.90;;;;;;5016446;28;20084;-62
2022/03/26 06:17:54;;;;;;;157.13;55.95;;;6.50;99.90;;;;;;5014648;28;20042;-64
2022/03/26 06:20:19;;;;;;;152.18;52.58;;;6.60;99.90;;;;;;5024419;28;20033;-63
2022/03/26 06:22:45;;;;;;;160.15;55.72;;;6.70;99.90;;;;;;5016372;28;20026;-63
2022/03/26 06:25:10;;;;;;;141.85;52.78;;;6.80;99.90;;;;;;5016275;28;20046;-62
2022/03/26 06:27:36;;;;;;;137.38;51.50;;;6.90;99.90;;;;;;5016060;28;20474;-63
2022/03/26 06:30:02;;;;;;;137.43;50.28;;;7.00;99.90;;;;;;5015794;28;20033;-63
2022/03/26 06:32:28;;;;;;;143.75;52.83;;;7.00;99.90;;;;;;5015852;28;20033;-63
2022/03/26 06:34:53;;;;;;;143.50;52.83;;;7.10;99.90;;;;;;5016527;28;20454;-63
2022/03/26 06:37:21;;;;;;;157.98;57.28;;;7.20;99.90;;;;;;5015965;28;20120;-63
2022/03/26 06:39:46;;;;;;;166.23;57.38;;;7.30;99.90;;;;;;5015450;28;20101;-63
2022/03/26 06:42:12;;;;;;;152.45;55.10;;;7.40;99.90;;;;;;5016038;28;20108;-63
2022/03/26 06:44:37;;;;;;;164.40;59.10;;;7.50;99.90;;;;;;5015258;28;20068;-63
2022/03/26 06:47:04;;;;;;;159.55;56.55;;;7.60;99.90;;;;;;5015900;28;20347;-63
2022/03/26 06:49:31;;;;;;;149.48;55.97;;;7.70;99.90;;;;;;5015387;28;20022;-63
2022/03/26 06:51:58;;;;;;;155.02;57.25;;;7.80;99.90;;;;;;5015979;28;20033;-63
2022/03/26 06:54:24;;;;;;;152.43;57.17;;;7.90;99.90;;;;;;5015605;28;20014;-63
2022/03/26 06:56:49;;;;;;;158.32;60.25;;;8.10;99.90;;;;;;5015645;28;20026;-63
2022/03/26 06:59:15;;;;;;;151.35;57.20;;;8.20;99.90;;;;;;5014956;28;20378;-63
2022/03/26 07:01:41;;;;;;;143.43;55.72;;;8.30;99.90;;;;;;5015434;28;20474;-63
2022/03/26 07:04:07;;;;;;;142.40;56.70;;;8.40;99.90;;;;;;5015298;28;20068;-64
2022/03/26 07:06:33;;;;;;;130.27;52.42;;;8.50;99.90;;;;;;5014075;28;20435;-63
2022/03/26 07:09:00;;;;;;;134.55;53.45;;;8.60;99.90;;;;;;5015067;28;20022;-62
2022/03/26 07:11:25;;;;;;;127.88;53.95;;;8.80;99.90;;;;;;5015169;28;20140;-64
2022/03/26 07:13:51;;;;;;;123.93;51.17;;;9.00;99.90;;;;;;5014853;28;20077;-63
2022/03/26 07:16:17;;;;;;;118.97;51.45;;;9.10;99.90;;;;;;5028662;28;20112;-64
2022/03/26 07:18:42;;;;;;;119.28;49.80;;;9.30;99.90;;;;;;5014717;28;20532;-64
2022/03/26 07:21:08;;;;;;;122.45;50.78;;;9.40;99.90;;;;;;5015134;28;20526;-63
2022/03/26 07:23:34;;;;;;;115.07;49.47;;;9.60;99.90;;;;;;5015001;28;20029;-63
2022/03/26 07:26:01;;;;;;;118.65;51.97;;;9.80;99.90;;;;;;5013773;28;20481;-63
2022/03/26 07:28:26;;;;;;;116.53;50.42;;;10.00;99.90;;;;;;5014818;28;20386;-63
2022/03/26 07:30:52;;;;;;;109.55;47.10;;;10.20;99.90;;;;;;5025294;28;20030;-63
2022/03/26 07:33:18;;;;;;;108.60;48.20;;;10.40;99.90;;;;;;5014495;28;20018;-63
2022/03/26 07:35:44;;;;;;;101.80;46.88;;;10.60;99.90;;;;;;5014433;28;20022;-63
2022/03/26 07:38:10;;;;;;;97.00;42.83;;;10.90;99.90;;;;;;5014924;28;20061;-63
2022/03/26 07:40:36;;;;;;;87.35;40.88;;;11.20;99.90;;;;;;5014982;28;20064;-63
2022/03/26 07:43:02;;;;;;;82.95;35.80;;;11.50;99.90;;;;;;5014009;28;20041;-62
2022/03/26 07:45:28;;;;;;;77.13;36.00;;;12.00;99.90;;;;;;5030149;28;20389;-63
2022/03/26 07:47:53;;;;;;;73.60;34.03;;;12.60;99.90;;;;;;5014831;28;20473;-63
2022/03/26 07:50:19;;;;;;;66.63;33.30;;;13.20;99.90;;;;;;5014818;28;20030;-63
2022/03/26 07:52:45;;;;;;;68.32;33.83;;;14.10;99.90;;;;;;5014191;28;20041;-63
2022/03/26 07:55:11;;;;;;;72.20;33.83;;;14.90;99.10;;;;;;5014479;28;20113;-64
2022/03/26 07:57:37;;;;;;;72.38;36.85;;;15.90;98.70;;;;;;5014295;28;20040;-63
2022/03/26 08:00:05;;;;;;;71.60;36.53;;;16.90;97.50;;;;;;5014271;28;20034;-63
2022/03/26 08:02:30;;;;;;;71.65;35.45;;;17.90;95.50;;;;;;5013991;28;20030;-63
2022/03/26 08:04:56;;;;;;;68.60;37.42;;;19.00;94.20;;;;;;5014176;28;20057;-64
2022/03/26 08:07:21;;;;;;;72.53;39.15;;;19.90;92.90;;;;;;5013858;28;20394;-64
2022/03/26 08:09:48;;;;;;;70.32;39.88;;;20.80;91.00;;;;;;5014132;28;20087;-63
2022/03/26 08:12:13;;;;;;;67.38;40.92;;;21.70;89.40;;;;;;5013678;28;20034;-63
2022/03/26 08:14:39;;;;;;;71.43;43.25;;;22.60;85.90;;;;;;5013790;28;20435;-63
2022/03/26 08:17:05;;;;;;;71.78;42.25;;;23.40;81.30;;;;;;5014072;28;20037;-63
2022/03/26 08:19:34;;;;;;;67.03;38.90;;;24.10;77.10;;;;;;5013941;28;20030;-63
2022/03/26 08:22:00;;;;;;;72.68;40.80;;;24.50;72.00;;;;;;5014026;28;20022;-62
2022/03/26 08:24:25;;;;;;;70.35;41.45;;;24.70;70.00;;;;;;5013702;28;20028;-64
2022/03/26 08:26:52;;;;;;;69.03;41.80;;;24.70;68.30;;;;;;5013578;28;20030;-63
2022/03/26 08:29:17;;;;;;;70.65;42.83;;;24.80;68.70;;;;;;5013643;28;20052;-63
2022/03/26 08:31:43;;;;;;;68.95;40.20;;;24.90;67.10;;;;;;5013575;28;20061;-63
2022/03/26 08:34:08;;;;;;;70.53;43.08;;;25.10;66.90;;;;;;5013751;28;20034;-63
2022/03/26 08:36:35;;;;;;;72.50;43.35;;;25.40;67.00;;;;;;5013592;28;20038;-63
2022/03/26 08:39:01;;;;;;;66.93;39.50;;;26.00;66.20;;;;;;5013650;28;20038;-62
2022/03/26 08:41:26;;;;;;;65.60;38.80;;;26.40;63.80;;;;;;5013294;28;20034;-63
2022/03/26 08:43:52;;;;;;;67.32;40.95;;;26.60;62.90;;;;;;5013872;28;20025;-62
2022/03/26 08:46:19;;;;;;;68.97;40.63;;;26.70;62.40;;;;;;5013660;28;20076;-63
2022/03/26 08:48:45;;;;;;;67.13;39.03;;;26.60;62.40;;;;;;5012980;28;20076;-63
2022/03/26 08:51:11;;;;;;;65.30;39.38;;;26.50;61.80;;;;;;5012873;28;20030;-63
2022/03/26 08:53:36;;;;;;;63.70;37.67;;;26.50;61.10;;;;;;5013164;28;20536;-63
2022/03/26 08:56:04;;;;;;;66.85;39.42;;;26.20;60.70;;;;;;5012322;28;20038;-63
2022/03/26 08:58:30;;;;;;;65.28;37.17;;;26.10;60.70;;;;;;5012669;28;20402;-63
2022/03/26 09:00:56;;;;;;;66.28;38.03;;;25.90;60.50;;;;;;5012365;28;20045;-63
2022/03/26 09:03:22;;;;;;;64.15;37.17;;;25.30;60.80;;;;;;5013335;28;20037;-63
2022/03/26 09:05:48;;;;;;;64.50;34.92;;;25.10;60.40;;;;;;5012294;28;20540;-64
2022/03/26 09:08:14;;;;;;;65.85;37.47;;;24.90;60.50;;;;;;5012990;28;20474;-63
2022/03/26 09:10:40;;;;;;;64.85;37.70;;;24.70;61.10;;;;;;5013460;28;20021;-62
2022/03/26 09:13:06;;;;;;;67.05;38.47;;;24.60;61.70;;;;;;5013386;28;20124;-63
2022/03/26 09:15:31;;;;;;;67.10;37.78;;;24.70;62.10;;;;;;5013373;28;20022;-62
2022/03/26 09:17:59;;;;;;;66.18;36.10;;;24.90;62.10;;;;;;5013250;28;20050;-63
2022/03/26 09:20:25;;;;;;;62.83;35.85;;;25.00;60.80;;;;;;5013445;28;20026;-63
2022/03/26 09:22:51;;;;;;;64.43;36.65;;;25.00;60.70;;;;;;5012205;28;20080;-62
2022/03/26 09:25:18;;;;;;;64.45;37.67;;;25.10;61.00;;;;;;5013370;28;20042;-63
2022/03/26 09:27:44;;;;;;;61.35;35.63;;;25.40;60.40;;;;;;5013576;28;20029;-63
2022/03/26 09:30:10;;;;;;;67.38;35.92;;;25.50;60.20;;;;;;5013815;28;20029;-63
2022/03/26 09:32:35;;;;;;;64.50;35.00;;;25.70;59.50;;;;;;5017188;28;20459;-63
2022/03/26 09:35:02;;;;;;;62.80;34.70;;;25.70;59.50;;;;;;5016645;28;20091;-62
2022/03/26 09:37:27;;;;;;;56.90;33.92;;;25.70;59.30;;;;;;5016288;28;20034;-63
2022/03/26 09:39:54;;;;;;;61.10;33.78;;;25.90;59.10;;;;;;5019254;28;20036;-65
2022/03/26 09:42:22;;;;;;;59.22;34.78;;;26.20;59.20;;;;;;5036922;28;20026;-67
2022/03/26 09:44:50;;;;;;;55.33;33.70;;;26.60;58.50;;;;;;5035258;28;20021;-63
2022/03/26 09:47:16;;;;;;;54.85;31.85;;;26.80;58.30;;;;;;5016823;28;20022;-63
2022/03/26 09:49:41;;;;;;;61.17;33.80;;;26.90;57.20;;;;;;5015180;28;20516;-63
2022/03/26 09:52:07;;;;;;;60.13;33.05;;;26.90;57.00;;;;;;5022716;28;20045;-66
2022/03/26 09:54:35;;;;;;;60.20;36.05;;;26.50;56.80;;;;;;5024318;28;20022;-62
2022/03/26 09:57:02;;;;;;;63.20;35.25;;;26.60;56.80;;;;;;5016472;28;20042;-66
2022/03/26 09:59:28;;;;;;;62.17;32.53;;;26.70;56.60;;;;;;5016242;28;20026;-63
2022/03/26 10:01:54;;;;;;;59.63;33.08;;;27.00;55.90;;;;;;5016766;28;20422;-64
2022/03/26 10:04:22;;;;;;;61.22;34.80;;;27.00;55.30;;;;;;5016816;28;20113;-65
2022/03/26 10:06:57;;;;;;;60.55;33.55;;;27.00;55.60;;;;;;5015284;28;20029;-65
2022/03/26 10:09:36;;;;;;;61.33;34.53;;;27.00;55.20;;;;;;5016538;28;20068;-66
2022/03/26 10:12:07;;;;;;;59.13;34.45;;;27.00;55.50;;;;;;5016189;28;20046;-66
2022/03/26 10:14:58;;;;;;;61.70;33.30;;;27.30;55.20;;;;;;5016076;28;20045;-66
2022/03/26 10:17:30;;;;;;;59.97;34.92;;;27.70;53.70;;;;;;5014138;28;20505;-64
2022/03/26 10:19:57;;;;;;;64.95;38.25;;;27.90;54.10;;;;;;5015834;28;20030;-66
2022/03/26 10:22:25;;;;;;;63.72;36.85;;;27.90;54.10;;;;;;5016361;28;20056;-62
2022/03/26 10:24:51;;;;;;;66.95;39.00;;;28.10;54.40;;;;;;5016265;28;20096;-65
2022/03/26 10:27:17;;;;;;;63.30;37.50;;;28.50;54.00;;;;;;5016315;28;20034;-63
2022/03/26 10:29:59;;;;;;;64.60;38.80;;;29.00;53.80;;;;;;5014865;28;20493;-64
2022/03/26 10:32:39;;;;;;;62.92;35.45;;;29.40;53.20;;;;;;5015233;28;20501;-64
2022/03/26 10:35:17;;;;;;;63.35;38.55;;;29.60;52.10;;;;;;5015591;28;20033;-64
2022/03/26 10:37:58;;;;;;;58.15;37.33;;;29.90;52.30;;;;;;5015546;28;20038;-62
2022/03/26 10:40:33;;;;;;;63.65;38.55;;;30.10;51.60;;;;;;5015944;28;20113;-65
2022/03/26 10:43:11;;;;;;;61.55;37.55;;;30.30;51.50;;;;;;5015033;28;20116;-65
2022/03/26 10:45:50;;;;;;;58.28;35.47;;;30.50;50.80;;;;;;5014588;28;20057;-63
2022/03/26 10:48:22;;;;;;;58.88;33.85;;;30.70;50.70;;;;;;5015099;28;20030;-66
2022/03/26 10:50:53;;;;;;;57.55;34.45;;;30.60;49.80;;;;;;5015820;28;20022;-67
2022/03/26 10:53:19;;;;;;;53.42;33.95;;;30.60;50.30;;;;;;5015705;28;20030;-62
2022/03/26 10:55:44;;;;;;;59.17;35.20;;;30.70;50.00;;;;;;5015777;28;20419;-63
2022/03/26 10:58:10;;;;;;;53.75;33.80;;;30.90;49.80;;;;;;5015501;28;20041;-65
2022/03/26 11:00:36;;;;;;;50.85;30.23;;;31.00;49.80;;;;;;5015656;28;20026;-66
2022/03/26 11:03:02;;;;;;;48.22;31.67;;;30.90;49.40;;;;;;5022188;28;20084;-63
2022/03/26 11:05:29;;;;;;;48.83;32.53;;;31.00;49.30;;;;;;5015549;28;20026;-65
2022/03/26 11:07:55;;;;;;;55.65;34.55;;;31.20;49.00;;;;;;5014498;28;20022;-65
2022/03/26 11:10:24;;;;;;;49.95;31.85;;;31.40;49.40;;;;;;5015425;28;20026;-62
2022/03/26 11:12:50;;;;;;;51.25;32.08;;;31.60;48.90;;;;;;5015457;28;20032;-63
2022/03/26 11:15:23;;;;;;;45.75;27.30;;;31.70;48.80;;;;;;5015167;28;20030;-66
2022/03/26 11:17:51;;;;;;;49.05;29.58;;;31.70;47.50;;;;;;5015488;28;20045;-64
2022/03/26 11:21:07;;;;;;;47.60;28.80;;;31.70;47.50;;;;;;5015438;28;20092;-64
2022/03/26 11:23:51;;;;;;;52.17;30.17;;;31.60;48.10;;;;;;5013605;28;20109;-63
2022/03/26 11:26:41;;;;;;;50.45;29.25;;;31.70;47.10;;;;;;5014642;28;20455;-65
2022/03/26 11:29:30;;;;;;;47.97;29.23;;;31.60;46.70;;;;;;5014497;28;20030;-65
2022/03/26 11:32:14;;;;;;;49.40;28.52;;;31.50;46.70;;;;;;5001414;28;20125;-63
2022/03/26 11:34:39;;;;;;;50.47;29.88;;;31.50;46.40;;;;;;5021787;28;20489;-64
2022/03/26 11:37:12;;;;;;;48.35;28.52;;;31.50;46.60;;;;;;5034460;28;20120;-64
2022/03/26 11:39:46;;;;;;;48.88;28.35;;;31.60;46.10;;;;;;5032892;28;20018;-65
2022/03/26 11:42:12;;;;;;;50.88;28.92;;;31.50;45.70;;;;;;5034670;28;20021;-63
2022/03/26 11:44:44;;;;;;;46.30;28.17;;;31.30;46.00;;;;;;5034587;28;20021;-64
2022/03/26 11:53:09;;;;;;;49.55;27.95;;;31.60;45.10;;;;;;5034091;28;20028;-65
2022/03/26 11:55:41;;;;;;;44.47;26.65;;;31.50;45.30;;;;;;5034225;28;20021;-65
2022/03/26 11:58:20;;;;;;;48.28;28.15;;;31.30;45.50;;;;;;5033834;28;20401;-68
2022/03/26 12:01:00;;;;;;;47.80;26.45;;;31.30;45.40;;;;;;5027575;28;20073;-63
2022/03/26 12:03:27;;;;;;;49.20;27.48;;;31.50;45.40;;;;;;5023796;28;20052;-65
2022/03/26 12:08:52;;;;;;;45.60;26.48;;;31.50;45.10;;;;;;5033737;28;20101;-62
2022/03/26 12:11:27;;;;;;;46.50;25.50;;;31.20;44.10;;;;;;5026386;28;20029;-66
2022/03/26 12:14:03;;;;;;;44.60;24.38;;;31.00;44.60;;;;;;5011350;28;20397;-64
2022/03/26 12:16:52;;;;;;;45.03;25.05;;;30.90;44.50;;;;;;5013605;28;20022;-65
2022/03/26 12:19:45;;;;;;;46.83;25.45;;;30.70;45.10;;;;;;5014148;28;20038;-62
2022/03/26 12:22:32;;;;;;;45.58;25.70;;;30.80;44.80;;;;;;5013781;28;20029;-64
2022/03/26 12:25:00;;;;;;;44.30;25.58;;;30.70;44.70;;;;;;5014122;28;20061;-61
2022/03/26 12:27:26;;;;;;;40.92;23.70;;;30.70;45.30;;;;;;5014047;28;20022;-67
2022/03/26 12:29:56;;;;;;;43.38;23.23;;;30.70;44.60;;;;;;5014059;28;20041;-64
2022/03/26 12:32:28;;;;;;;49.78;24.90;;;30.50;44.80;;;;;;5014077;28;20427;-66
2022/03/26 12:35:01;;;;;;;42.83;24.10;;;30.30;44.60;;;;;;5013730;28;20057;-64
2022/03/26 12:37:28;;;;;;;42.65;23.40;;;30.20;44.70;;;;;;5013866;28;20041;-66
2022/03/26 12:39:54;;;;;;;42.17;23.77;;;29.90;44.80;;;;;;5014295;28;20132;-63
2022/03/26 12:42:20;;;;;;;44.03;24.23;;;30.00;44.90;;;;;;5013811;28;20030;-66